createdAt,value
2016-07-23T00:02:23.117Z,0
2016-07-23T00:05:36.780Z,0
2016-07-23T00:08:50.333Z,0
2016-07-23T00:12:04.061Z,0
2016-07-23T00:15:17.744Z,0
2016-07-23T00:18:31.104Z,0
2016-07-23T00:21:50.890Z,0
2016-07-23T00:24:53.813Z,0
2016-07-23T00:28:07.585Z,0
2016-07-23T00:31:21.341Z,0
2016-07-23T00:34:34.925Z,0
2016-07-23T00:37:54.432Z,0
2016-07-23T00:40:57.152Z,0
2016-07-23T00:44:10.769Z,0
2016-07-23T00:47:24.353Z,0
2016-07-23T00:50:38.079Z,0
2016-07-23T00:53:51.501Z,0
2016-07-23T00:57:05.204Z,0
2016-07-23T01:00:19.001Z,0
2016-07-23T01:03:32.507Z,0
2016-07-23T01:06:52.178Z,0
2016-07-23T01:09:55.008Z,0
2016-07-23T01:13:08.564Z,0
2016-07-23T01:16:22.367Z,0
2016-07-23T01:19:33.214Z,0
2016-07-23T01:22:52.865Z,0
2016-07-23T01:25:55.706Z,0
2016-07-23T01:29:09.278Z,0
2016-07-23T01:32:22.946Z,0
2016-07-23T01:35:36.352Z,0
2016-07-23T01:38:49.927Z,0
2016-07-23T01:42:03.494Z,0
2016-07-23T01:45:17.122Z,0
2016-07-23T01:48:30.741Z,0
2016-07-23T01:51:50.425Z,0
2016-07-23T01:54:53.254Z,0
2016-07-23T01:58:07.222Z,0
2016-07-23T02:01:20.697Z,0
2016-07-23T02:04:34.233Z,0
2016-07-23T02:07:53.865Z,0
2016-07-23T02:10:56.842Z,0
2016-07-23T02:14:10.314Z,0
2016-07-23T02:17:23.783Z,0
2016-07-23T02:20:37.291Z,0
2016-07-23T02:23:50.857Z,0
2016-07-23T02:27:04.482Z,0
2016-07-23T02:30:17.939Z,1
2016-07-23T02:33:31.584Z,2
2016-07-23T02:36:51.260Z,1
2016-07-23T02:39:54.043Z,3
2016-07-23T02:43:07.680Z,4
2016-07-23T02:46:21.477Z,6
2016-07-23T02:49:34.974Z,10
2016-07-23T02:52:54.486Z,13
2016-07-23T02:55:57.170Z,18
2016-07-23T02:59:10.682Z,26
2016-07-23T03:02:24.248Z,38
2016-07-23T03:05:38.050Z,51
2016-07-23T03:08:51.383Z,66
2016-07-23T03:12:05.197Z,85
2016-07-23T03:15:18.260Z,107
2016-07-23T03:18:31.875Z,131
2016-07-23T03:21:51.313Z,159
2016-07-23T03:24:54.055Z,189
2016-07-23T03:28:07.464Z,222
2016-07-23T03:31:20.983Z,257
2016-07-23T03:34:34.582Z,293
2016-07-23T03:37:54.135Z,333
2016-07-23T03:40:57.031Z,370
2016-07-23T03:44:10.228Z,409
2016-07-23T03:47:23.646Z,449
2016-07-23T03:50:37.191Z,488
2016-07-23T03:53:50.667Z,528
2016-07-23T03:57:04.171Z,565
2016-07-23T04:00:17.500Z,605
2016-07-23T04:03:31.196Z,635
2016-07-23T04:06:50.805Z,671
2016-07-23T04:09:53.733Z,719
2016-07-23T04:13:07.094Z,756
2016-07-23T04:16:20.702Z,792
2016-07-23T04:19:34.150Z,826
2016-07-23T04:22:53.641Z,856
2016-07-23T04:25:56.322Z,888
2016-07-23T04:29:09.941Z,930
2016-07-23T04:32:23.217Z,968
2016-07-23T04:35:36.736Z,1004
2016-07-23T04:38:50.268Z,1039
2016-07-23T04:42:03.755Z,1090
2016-07-23T04:45:17.126Z,1158
2016-07-23T04:48:30.534Z,1339
2016-07-23T04:51:50.073Z,1425
2016-07-23T04:54:52.771Z,1457
2016-07-23T04:58:06.288Z,1418
2016-07-23T05:01:19.864Z,1393
2016-07-23T05:04:33.421Z,1366
2016-07-23T05:07:54.140Z,1380
2016-07-23T05:10:55.762Z,1508
2016-07-23T05:14:08.967Z,1831
2016-07-23T05:17:22.466Z,1906
2016-07-23T05:20:36.338Z,2011
2016-07-23T05:23:50.051Z,2103
2016-07-23T05:27:03.924Z,2195
2016-07-23T05:30:17.530Z,2248
2016-07-23T05:33:31.203Z,2286
2016-07-23T05:36:50.805Z,2338
2016-07-23T05:39:53.791Z,2406
2016-07-23T05:43:07.738Z,2486
2016-07-23T05:46:21.756Z,2433
2016-07-23T05:49:35.973Z,2506
2016-07-23T05:52:49.768Z,2661
2016-07-23T05:56:03.514Z,2772
2016-07-23T05:59:17.432Z,2847
2016-07-23T06:02:31.191Z,2912
2016-07-23T06:05:51.413Z,3014
2016-07-23T06:08:54.760Z,3028
2016-07-23T06:12:08.785Z,3144
2016-07-23T06:15:22.821Z,3190
2016-07-23T06:18:37.084Z,3306
2016-07-23T06:21:51.346Z,3497
2016-07-23T06:25:05.436Z,3744
2016-07-23T06:28:19.563Z,3588
2016-07-23T06:31:33.788Z,3685
2016-07-23T06:34:54.053Z,3771
2016-07-23T06:37:57.589Z,3913
2016-07-23T06:41:10.974Z,4428
2016-07-23T06:44:25.437Z,6929
2016-07-23T06:47:45.898Z,393
2016-07-23T06:50:55.636Z,384
2016-07-23T06:53:59.604Z,384
2016-07-23T06:57:14.226Z,384
2016-07-23T07:00:29.107Z,384
2016-07-23T07:03:49.851Z,384
2016-07-23T07:06:53.829Z,384
2016-07-23T07:10:08.764Z,384
2016-07-23T07:13:23.583Z,384
2016-07-23T07:16:38.530Z,458
2016-07-23T07:19:53.231Z,565
2016-07-23T07:23:07.766Z,384
2016-07-23T07:26:22.721Z,384
2016-07-23T07:29:37.674Z,384
2016-07-23T07:32:52.608Z,384
2016-07-23T07:36:07.753Z,384
2016-07-23T07:39:22.811Z,384
2016-07-23T07:42:37.842Z,384
2016-07-23T07:45:53.243Z,384
2016-07-23T07:49:08.546Z,384
2016-07-23T07:52:23.927Z,384
2016-07-23T07:55:39.128Z,469
2016-07-23T07:58:53.886Z,384
2016-07-23T08:02:08.941Z,528
2016-07-23T08:05:23.939Z,482
2016-07-23T08:08:38.900Z,384
2016-07-23T08:11:53.776Z,1612
2016-07-23T08:15:08.525Z,384
2016-07-23T08:18:23.615Z,384
2016-07-23T08:21:38.611Z,384
2016-07-23T08:24:53.519Z,384
2016-07-23T08:28:08.431Z,384
2016-07-23T08:31:23.512Z,384
2016-07-23T08:34:38.469Z,384
2016-07-23T08:37:53.343Z,384
2016-07-23T08:41:08.539Z,384
2016-07-23T08:44:23.122Z,384
2016-07-23T08:47:38.268Z,384
2016-07-23T08:50:53.350Z,384
2016-07-23T08:54:08.608Z,384
2016-07-23T08:57:23.334Z,384
2016-07-23T09:00:37.973Z,384
2016-07-23T09:03:52.558Z,384
2016-07-23T09:07:07.822Z,384
2016-07-23T09:10:22.802Z,384
2016-07-23T09:13:37.797Z,384
2016-07-23T09:16:52.918Z,384
2016-07-23T09:20:08.209Z,384
2016-07-23T09:23:23.289Z,384
2016-07-23T09:26:38.516Z,384
2016-07-23T09:29:53.068Z,384
2016-07-23T09:33:07.820Z,384
2016-07-23T09:36:22.051Z,384
2016-07-23T09:39:36.513Z,384
2016-07-23T09:42:51.185Z,384
2016-07-23T09:46:05.999Z,384
2016-07-23T09:49:20.837Z,480
2016-07-23T09:52:35.725Z,588
2016-07-23T09:55:50.311Z,1556
2016-07-23T09:59:04.710Z,542
2016-07-23T10:02:19.189Z,1625
2016-07-23T10:05:33.994Z,9571
2016-07-23T10:08:54.463Z,11194
2016-07-23T10:11:58.432Z,10365
2016-07-23T10:15:12.901Z,9758
2016-07-23T10:18:27.384Z,9987
2016-07-23T10:21:47.554Z,9706
2016-07-23T10:24:51.364Z,9347
2016-07-23T10:28:06.020Z,9164
2016-07-23T10:31:20.546Z,8956
2016-07-23T10:34:35.227Z,8732
2016-07-23T10:37:55.689Z,8641
2016-07-23T10:40:59.886Z,8455
2016-07-23T10:44:14.340Z,8186
2016-07-23T10:47:28.989Z,8413
2016-07-23T10:50:49.568Z,8158
2016-07-23T10:53:53.591Z,8005
2016-07-23T10:57:07.641Z,7713
2016-07-23T11:00:21.962Z,7144
2016-07-23T11:03:36.106Z,7166
2016-07-23T11:06:50.381Z,6931
2016-07-23T11:10:04.767Z,6551
2016-07-23T11:13:18.926Z,6371
2016-07-23T11:16:33.052Z,5997
2016-07-23T11:19:53.428Z,6328
2016-07-23T11:22:56.826Z,6204
2016-07-23T11:26:10.615Z,6296
2016-07-23T11:29:24.238Z,6344
2016-07-23T11:32:37.169Z,6276
2016-07-23T11:35:51.096Z,5797
2016-07-23T11:39:05.050Z,5440
2016-07-23T11:42:18.681Z,5357
2016-07-23T11:45:34.094Z,5251
2016-07-23T11:48:51.447Z,5068
2016-07-23T11:51:55.014Z,5332
2016-07-23T11:55:08.938Z,5854
2016-07-23T11:58:22.620Z,5714
2016-07-23T12:01:36.259Z,5734
2016-07-23T12:04:50.355Z,5883
2016-07-23T12:08:04.683Z,5763
2016-07-23T12:11:19.188Z,5627
2016-07-23T12:14:33.785Z,5381
2016-07-23T12:17:53.832Z,4974
2016-07-23T12:20:57.602Z,4881
2016-07-23T12:24:11.609Z,4939
2016-07-23T12:27:25.368Z,4990
2016-07-23T12:30:39.345Z,4789
2016-07-23T12:33:53.036Z,5037
2016-07-23T12:37:06.672Z,5008
2016-07-23T12:40:19.950Z,5150
2016-07-23T12:43:33.375Z,5252
2016-07-23T12:46:53.253Z,5267
2016-07-23T12:49:56.946Z,5219
2016-07-23T12:53:10.828Z,4908
2016-07-23T12:56:23.211Z,4700
2016-07-23T12:59:37.710Z,4654
2016-07-23T13:02:52.102Z,5026
2016-07-23T13:06:06.572Z,4957
2016-07-23T13:09:21.013Z,4889
2016-07-23T13:12:35.569Z,4978
2016-07-23T13:15:55.575Z,4912
2016-07-23T13:18:59.294Z,4726
2016-07-23T13:22:12.680Z,4671
2016-07-23T13:25:27.191Z,4480
2016-07-23T13:28:47.449Z,4434
2016-07-23T13:31:51.167Z,4460
2016-07-23T13:35:05.652Z,4526
2016-07-23T13:38:17.083Z,4532
2016-07-23T13:41:31.084Z,4572
2016-07-23T13:44:51.245Z,4665
2016-07-23T13:47:54.902Z,4816
2016-07-23T13:51:09.227Z,4826
2016-07-23T13:54:23.701Z,4749
2016-07-23T13:57:38.179Z,4209
2016-07-23T14:00:52.472Z,3963
2016-07-23T14:04:06.863Z,3705
2016-07-23T14:07:21.285Z,3494
2016-07-23T14:10:33.270Z,3374
2016-07-23T14:13:53.596Z,3263
2016-07-23T14:16:57.346Z,3228
2016-07-23T14:20:11.893Z,3227
2016-07-23T14:23:25.646Z,3451
2016-07-23T14:26:39.888Z,3553
2016-07-23T14:29:51.488Z,3511
2016-07-23T14:33:05.955Z,3352
2016-07-23T14:36:20.073Z,3234
2016-07-23T14:39:34.654Z,3313
2016-07-23T14:42:52.798Z,3435
2016-07-23T14:45:56.664Z,3514
2016-07-23T14:49:10.781Z,3488
2016-07-23T14:52:24.905Z,3425
2016-07-23T14:55:39.789Z,3321
2016-07-23T14:58:52.812Z,3256
2016-07-23T15:02:06.964Z,3225
2016-07-23T15:05:21.480Z,3019
2016-07-23T15:08:35.885Z,2807
2016-07-23T15:11:50.152Z,2523
2016-07-23T15:15:04.644Z,2362
2016-07-23T15:18:19.487Z,2229
2016-07-23T15:21:34.114Z,2196
2016-07-23T15:24:54.489Z,2157
2016-07-23T15:27:58.348Z,2244
2016-07-23T15:31:12.879Z,2126
2016-07-23T15:34:27.267Z,2202
2016-07-23T15:37:47.602Z,2300
2016-07-23T15:40:51.421Z,2037
2016-07-23T15:44:05.935Z,1810
2016-07-23T15:47:20.734Z,1729
2016-07-23T15:50:35.288Z,1587
2016-07-23T15:53:55.675Z,1586
2016-07-23T15:56:59.430Z,1733
2016-07-23T16:00:14.212Z,1600
2016-07-23T16:03:28.690Z,1373
2016-07-23T16:06:49.302Z,1292
2016-07-23T16:09:53.264Z,1417
2016-07-23T16:13:07.721Z,1387
2016-07-23T16:16:21.977Z,1489
2016-07-23T16:19:36.346Z,1468
2016-07-23T16:22:54.605Z,1521
2016-07-23T16:25:58.381Z,1530
2016-07-23T16:29:12.538Z,1653
2016-07-23T16:32:26.911Z,1631
2016-07-23T16:35:47.376Z,1526
2016-07-23T16:38:51.067Z,1476
2016-07-23T16:42:05.783Z,1363
2016-07-23T16:45:20.267Z,1226
2016-07-23T16:48:34.662Z,1145
2016-07-23T16:51:54.886Z,1057
2016-07-23T16:54:58.689Z,1014
2016-07-23T16:58:12.396Z,824
2016-07-23T17:01:26.179Z,795
2016-07-23T17:04:46.431Z,854
2016-07-23T17:07:50.022Z,858
2016-07-23T17:11:03.727Z,784
2016-07-23T17:14:17.645Z,790
2016-07-23T17:17:31.535Z,785
2016-07-23T17:20:51.639Z,761
2016-07-23T17:23:55.334Z,759
2016-07-23T17:27:08.872Z,776
2016-07-23T17:30:22.693Z,736
2016-07-23T17:33:36.613Z,682
2016-07-23T17:36:50.651Z,670
2016-07-23T17:40:04.280Z,634
2016-07-23T17:43:17.984Z,598
2016-07-23T17:46:31.843Z,543
2016-07-23T17:49:51.538Z,527
2016-07-23T17:52:55.004Z,503
2016-07-23T17:56:09.247Z,509
2016-07-23T17:59:23.313Z,510
2016-07-23T18:02:37.500Z,516
2016-07-23T18:05:51.474Z,528
2016-07-23T18:09:05.577Z,573
2016-07-23T18:12:19.254Z,650
2016-07-23T18:15:33.247Z,620
2016-07-23T18:18:53.119Z,541
2016-07-23T18:21:56.729Z,469
2016-07-23T18:25:11.185Z,429
2016-07-23T18:28:25.371Z,355
2016-07-23T18:31:39.535Z,303
2016-07-23T18:34:53.271Z,263
2016-07-23T18:38:07.122Z,243
2016-07-23T18:41:20.761Z,226
2016-07-23T18:44:34.199Z,207
2016-07-23T18:47:53.899Z,180
2016-07-23T18:50:57.283Z,163
2016-07-23T18:54:11.320Z,146
2016-07-23T18:57:25.230Z,126
2016-07-23T19:00:38.895Z,111
2016-07-23T19:03:53.039Z,91
2016-07-23T19:07:06.374Z,77
2016-07-23T19:10:20.178Z,63
2016-07-23T19:13:34.132Z,50
2016-07-23T19:16:53.986Z,39
2016-07-23T19:19:57.359Z,30
2016-07-23T19:23:11.375Z,22
2016-07-23T19:26:25.402Z,16
2016-07-23T19:29:39.297Z,11
2016-07-23T19:32:53.389Z,8
2016-07-23T19:36:07.263Z,5
2016-07-23T19:39:21.255Z,4
2016-07-23T19:42:35.493Z,2
2016-07-23T19:45:55.603Z,1
2016-07-23T19:48:59.036Z,0
2016-07-23T19:52:13.076Z,1
2016-07-23T19:55:26.957Z,0
2016-07-23T19:58:47.084Z,0
2016-07-23T20:01:50.273Z,0
2016-07-23T20:05:04.593Z,0
2016-07-23T20:08:18.471Z,0
2016-07-23T20:11:32.640Z,0
2016-07-23T20:14:52.809Z,0
2016-07-23T20:17:56.237Z,0
2016-07-23T20:21:10.327Z,0
2016-07-23T20:24:24.164Z,0
2016-07-23T20:27:38.254Z,0
2016-07-23T20:30:52.100Z,0
2016-07-23T20:34:06.306Z,0
2016-07-23T20:37:20.414Z,0
2016-07-23T20:40:34.475Z,0
2016-07-23T20:43:54.221Z,0
2016-07-23T20:46:57.478Z,0
2016-07-23T20:50:11.396Z,0
2016-07-23T20:53:25.509Z,0
2016-07-23T20:56:39.767Z,0
2016-07-23T20:59:53.841Z,0
2016-07-23T21:03:07.681Z,0
2016-07-23T21:06:21.566Z,0
2016-07-23T21:09:35.598Z,0
2016-07-23T21:12:55.557Z,0
2016-07-23T21:15:58.694Z,0
2016-07-23T21:19:12.190Z,0
2016-07-23T21:22:26.274Z,0
2016-07-23T21:25:46.258Z,0
2016-07-23T21:28:55.569Z,0
2016-07-23T21:31:58.709Z,0
2016-07-23T21:35:12.155Z,0
2016-07-23T21:38:25.864Z,0
2016-07-23T21:41:39.378Z,0
2016-07-23T21:44:52.646Z,0
2016-07-23T21:48:06.021Z,0
2016-07-23T21:51:19.731Z,0
2016-07-23T21:54:32.742Z,0
2016-07-23T21:57:52.488Z,0
2016-07-23T22:00:55.566Z,0
2016-07-23T22:04:09.196Z,0
2016-07-23T22:07:22.169Z,0
2016-07-23T22:10:35.434Z,0
2016-07-23T22:13:54.696Z,0
2016-07-23T22:16:57.793Z,0
2016-07-23T22:20:10.922Z,0
2016-07-23T22:23:24.663Z,0
2016-07-23T22:26:38.115Z,0
2016-07-23T22:29:51.063Z,0
2016-07-23T22:33:02.863Z,0
2016-07-23T22:36:16.561Z,0
2016-07-23T22:39:30.341Z,0
2016-07-23T22:42:50.215Z,0
2016-07-23T22:45:53.414Z,0
2016-07-23T22:49:06.969Z,0
2016-07-23T22:52:21.121Z,0
2016-07-23T22:55:34.589Z,0
2016-07-23T22:58:54.207Z,0
2016-07-23T23:01:57.341Z,0
2016-07-23T23:05:11.030Z,0
2016-07-23T23:08:24.375Z,0
2016-07-23T23:11:37.830Z,0
2016-07-23T23:14:51.285Z,0
2016-07-23T23:18:04.852Z,0
2016-07-23T23:21:18.457Z,0
2016-07-23T23:24:32.199Z,0
2016-07-23T23:27:48.080Z,0
2016-07-23T23:30:51.264Z,0
2016-07-23T23:34:04.845Z,0
2016-07-23T23:37:17.936Z,0
2016-07-23T23:40:31.536Z,0
2016-07-23T23:43:51.475Z,0
2016-07-23T23:46:54.555Z,0
2016-07-23T23:50:08.558Z,0
2016-07-23T23:53:22.252Z,0
2016-07-23T23:56:35.950Z,0
2016-07-23T23:59:54.304Z,0
